createdAt,value
2023-01-22T00:00:23.281Z,19.00
2023-01-22T00:03:28.651Z,17.83
2023-01-22T00:06:32.989Z,18.45
2023-01-22T00:09:37.691Z,19.58
2023-01-22T00:12:42.635Z,20.42
2023-01-22T00:15:48.136Z,19.77
2023-01-22T00:18:52.869Z,19.30
2023-01-22T00:21:57.832Z,19.13
2023-01-22T00:25:02.563Z,18.80
2023-01-22T00:28:07.995Z,18.10
2023-01-22T00:31:15.683Z,17.10
2023-01-22T00:34:20.403Z,18.80
2023-01-22T00:37:25.332Z,17.90
2023-01-22T00:40:30.407Z,19.58
2023-01-22T00:43:41.155Z,19.98
2023-01-22T00:46:45.906Z,19.42
2023-01-22T00:49:50.484Z,18.98
2023-01-22T00:52:55.431Z,19.77
2023-01-22T00:56:02.619Z,18.55
2023-01-22T00:59:10.556Z,17.27
2023-01-22T01:02:16.065Z,18.58
2023-01-22T01:05:20.835Z,18.90
2023-01-22T01:08:26.987Z,19.00
2023-01-22T01:11:31.905Z,16.88
2023-01-22T01:14:36.652Z,18.30
2023-01-22T01:17:41.621Z,17.60
2023-01-22T01:20:52.883Z,19.52
2023-01-22T01:23:58.765Z,17.48
2023-01-22T01:27:03.905Z,17.42
2023-01-22T01:30:09.946Z,16.35
2023-01-22T01:33:14.628Z,17.20
2023-01-22T01:36:40.390Z,18.27
2023-01-22T01:39:52.447Z,16.40
2023-01-22T01:42:57.409Z,17.17
2023-01-22T01:46:05.272Z,17.15
2023-01-22T01:49:24.015Z,17.40
2023-01-22T01:52:28.484Z,17.60
2023-01-22T01:55:35.774Z,16.88
2023-01-22T01:58:42.708Z,18.27
2023-01-22T02:01:53.683Z,16.70
2023-01-22T02:04:58.583Z,16.67
2023-01-22T02:08:04.433Z,17.33
2023-01-22T02:11:10.701Z,16.67
2023-01-22T02:14:22.720Z,18.63
2023-01-22T02:17:27.371Z,15.95
2023-01-22T02:20:40.798Z,16.23
2023-01-22T02:23:45.479Z,17.90
2023-01-22T02:26:50.076Z,17.13
2023-01-22T02:29:58.224Z,16.65
2023-01-22T02:33:02.756Z,16.58
2023-01-22T02:36:08.451Z,16.23
2023-01-22T02:39:13.056Z,15.43
2023-01-22T02:42:17.935Z,15.93
2023-01-22T02:45:24.177Z,15.07
2023-01-22T02:48:29.550Z,16.42
2023-01-22T02:51:34.356Z,17.55
2023-01-22T02:54:39.238Z,17.83
2023-01-22T02:57:44.187Z,17.35
2023-01-22T03:00:49.165Z,17.25
2023-01-22T03:04:01.634Z,17.88
2023-01-22T03:07:06.475Z,19.63
2023-01-22T03:10:18.506Z,17.10
2023-01-22T03:13:42.532Z,18.38
2023-01-22T03:17:06.487Z,19.27
2023-01-22T03:20:30.065Z,17.75
2023-01-22T03:23:34.816Z,17.42
2023-01-22T03:26:42.132Z,17.52
2023-01-22T03:29:47.458Z,17.77
2023-01-22T03:32:58.496Z,17.08
2023-01-22T03:36:15.353Z,18.25
2023-01-22T03:39:32.092Z,19.52
2023-01-22T03:42:36.801Z,18.80
2023-01-22T03:45:41.614Z,18.23
2023-01-22T03:48:53.769Z,18.48
2023-01-22T03:51:58.675Z,18.33
2023-01-22T03:55:04.628Z,16.27
2023-01-22T03:58:10.391Z,17.20
2023-01-22T04:01:26.070Z,17.08
2023-01-22T04:04:30.916Z,17.17
2023-01-22T04:07:35.812Z,17.73
2023-01-22T04:10:40.812Z,16.52
2023-01-22T04:13:46.583Z,15.73
2023-01-22T04:16:55.443Z,18.05
2023-01-22T04:20:19.786Z,20.03
2023-01-22T04:23:46.466Z,17.55
2023-01-22T04:26:53.109Z,15.57
2023-01-22T04:29:58.714Z,18.48
2023-01-22T04:33:04.277Z,17.35
2023-01-22T04:36:21.139Z,18.10
2023-01-22T04:39:25.779Z,19.05
2023-01-22T04:42:30.677Z,18.08
2023-01-22T04:45:36.084Z,17.75
2023-01-22T04:48:41.136Z,18.20
2023-01-22T04:51:46.160Z,17.73
2023-01-22T04:54:52.203Z,17.80
2023-01-22T04:58:00.189Z,16.50
2023-01-22T05:01:05.654Z,18.25
2023-01-22T05:04:12.019Z,17.73
2023-01-22T05:07:17.355Z,16.73
2023-01-22T05:10:23.496Z,16.92
2023-01-22T05:13:29.198Z,18.42
2023-01-22T05:16:34.731Z,17.20
2023-01-22T05:19:39.840Z,16.00
2023-01-22T05:22:50.431Z,16.90
2023-01-22T05:25:59.321Z,16.80
2023-01-22T05:29:16.619Z,18.30
2023-01-22T05:32:40.764Z,18.65
2023-01-22T05:35:45.766Z,17.45
2023-01-22T05:38:51.901Z,17.48
2023-01-22T05:41:56.665Z,16.85
2023-01-22T05:45:01.571Z,17.00
2023-01-22T05:48:07.362Z,17.90
2023-01-22T05:51:22.264Z,18.80
2023-01-22T05:54:27.505Z,17.15
2023-01-22T05:57:35.697Z,17.30
2023-01-22T06:00:40.926Z,17.33
2023-01-22T06:03:48.241Z,16.45
2023-01-22T06:06:56.721Z,16.58
2023-01-22T06:10:03.382Z,16.10
2023-01-22T06:13:08.288Z,16.33
2023-01-22T06:16:13.385Z,17.08
2023-01-22T06:19:44.212Z,15.20
2023-01-22T06:22:52.117Z,16.05
2023-01-22T06:25:59.831Z,16.67
2023-01-22T06:29:04.536Z,15.00
2023-01-22T06:32:09.354Z,16.63
2023-01-22T06:35:14.188Z,15.82
2023-01-22T06:38:18.836Z,16.70
2023-01-22T06:41:23.778Z,15.93
2023-01-22T06:44:33.838Z,14.52
2023-01-22T06:47:42.861Z,14.77
2023-01-22T06:50:48.039Z,15.02
2023-01-22T06:53:52.816Z,14.63
2023-01-22T06:56:58.727Z,12.65
2023-01-22T07:00:05.329Z,13.10
2023-01-22T07:03:10.048Z,13.82
2023-01-22T07:06:18.724Z,13.27
2023-01-22T07:09:23.002Z,12.75
2023-01-22T07:12:27.753Z,11.38
2023-01-22T07:15:32.682Z,11.93
2023-01-22T07:18:37.514Z,12.10
2023-01-22T07:21:42.334Z,13.25
2023-01-22T07:24:47.042Z,11.40
2023-01-22T07:27:52.314Z,11.35
2023-01-22T07:30:57.349Z,12.05
2023-01-22T07:34:03.399Z,11.25
2023-01-22T07:37:08.159Z,11.73
2023-01-22T07:40:13.603Z,11.30
2023-01-22T07:43:18.379Z,11.13
2023-01-22T07:46:23.977Z,11.90
2023-01-22T07:49:28.634Z,12.57
2023-01-22T07:52:33.466Z,12.40
2023-01-22T07:55:40.341Z,12.88
2023-01-22T07:58:46.453Z,11.80
2023-01-22T08:01:51.421Z,12.88
2023-01-22T08:04:56.097Z,12.57
2023-01-22T08:08:00.874Z,13.05
2023-01-22T08:11:05.862Z,12.45
2023-01-22T08:14:10.369Z,12.60
2023-01-22T08:17:15.484Z,12.25
2023-01-22T08:20:21.304Z,11.75
2023-01-22T08:23:25.946Z,12.38
2023-01-22T08:26:30.700Z,12.23
2023-01-22T08:29:35.754Z,12.52
2023-01-22T08:32:42.043Z,12.10
2023-01-22T08:35:46.951Z,11.93
2023-01-22T08:38:51.873Z,12.20
2023-01-22T08:41:57.880Z,11.38
2023-01-22T08:45:02.927Z,10.20
2023-01-22T08:48:07.845Z,12.15
2023-01-22T08:51:12.969Z,11.88
2023-01-22T08:54:20.712Z,11.27
2023-01-22T08:57:25.389Z,10.60
2023-01-22T09:00:30.281Z,10.43
2023-01-22T09:03:35.785Z,10.55
2023-01-22T09:06:40.540Z,9.52
2023-01-22T09:09:45.300Z,10.50
2023-01-22T09:12:50.228Z,9.95
2023-01-22T09:15:59.033Z,10.65
2023-01-22T09:19:05.206Z,10.77
2023-01-22T09:22:15.485Z,10.38
2023-01-22T09:25:30.435Z,9.70
2023-01-22T09:32:32.134Z,10.45
2023-01-22T09:35:37.301Z,9.45
2023-01-22T09:38:46.500Z,10.23
2023-01-22T09:41:58.745Z,10.40
2023-01-22T09:45:12.621Z,9.45
2023-01-22T09:48:23.597Z,9.05
2023-01-22T09:52:05.184Z,9.57
2023-01-22T09:55:26.464Z,9.65
2023-01-22T09:58:43.579Z,10.68
2023-01-22T10:02:02.273Z,10.80
2023-01-22T10:06:00.520Z,10.45
2023-01-22T10:09:20.005Z,10.30
2023-01-22T10:12:30.387Z,9.30
2023-01-22T10:15:41.392Z,10.88
2023-01-22T10:19:24.958Z,10.27
2023-01-22T10:22:30.841Z,10.68
2023-01-22T10:25:35.585Z,10.23
2023-01-22T10:28:53.488Z,10.65
2023-01-22T10:32:33.496Z,9.52
2023-01-22T10:39:43.919Z,10.52
2023-01-22T10:43:17.707Z,10.07
2023-01-22T10:46:28.454Z,9.35
2023-01-22T10:49:33.406Z,9.40
2023-01-22T10:52:45.108Z,9.70
2023-01-22T10:55:56.621Z,10.77
2023-01-22T10:59:29.734Z,9.82
2023-01-22T11:02:36.496Z,10.90
2023-01-22T11:05:45.687Z,10.07
2023-01-22T11:08:56.467Z,10.77
2023-01-22T11:12:26.611Z,9.88
2023-01-22T11:15:57.615Z,10.13
2023-01-22T11:19:36.025Z,9.98
2023-01-22T11:22:46.370Z,10.00
2023-01-22T11:26:17.964Z,11.23
2023-01-22T11:29:31.964Z,11.48
2023-01-22T11:32:45.572Z,10.25
2023-01-22T11:36:05.335Z,10.55
2023-01-22T11:39:39.564Z,9.85
2023-01-22T11:43:12.146Z,9.77
2023-01-22T11:46:48.921Z,10.20
2023-01-22T11:50:28.250Z,10.95
2023-01-22T11:54:03.386Z,10.50
2023-01-22T11:57:30.587Z,10.18
2023-01-22T12:01:18.582Z,10.63
2023-01-22T12:04:34.975Z,10.32
2023-01-22T12:07:49.485Z,10.68
2023-01-22T12:11:21.358Z,11.68
2023-01-22T12:14:56.050Z,10.73
2023-01-22T12:18:40.078Z,10.98
2023-01-22T12:22:25.662Z,10.77
2023-01-22T12:25:48.464Z,10.88
2023-01-22T12:29:22.581Z,10.98
2023-01-22T12:32:30.098Z,10.80
2023-01-22T12:35:34.737Z,11.38
2023-01-22T12:39:00.192Z,11.20
2023-01-22T12:42:32.330Z,9.13
2023-01-22T12:46:08.715Z,10.98
2023-01-22T12:49:17.160Z,11.63
2023-01-22T12:52:40.972Z,12.02
2023-01-22T12:55:45.705Z,11.15
2023-01-22T12:58:57.832Z,11.20
2023-01-22T13:02:20.705Z,11.05
2023-01-22T13:05:31.345Z,11.95
2023-01-22T13:08:43.032Z,11.40
2023-01-22T13:11:47.681Z,11.02
2023-01-22T13:14:53.812Z,11.68
2023-01-22T13:18:08.170Z,11.88
2023-01-22T13:21:17.353Z,12.40
2023-01-22T13:24:22.076Z,11.63
2023-01-22T13:27:35.070Z,10.95
2023-01-22T13:30:39.852Z,11.10
2023-01-22T13:34:00.202Z,11.43
2023-01-22T13:37:04.948Z,11.80
2023-01-22T13:40:21.788Z,12.13
2023-01-22T13:43:27.625Z,11.45
2023-01-22T13:46:32.214Z,11.52
2023-01-22T13:49:43.217Z,11.85
2023-01-22T13:52:50.319Z,11.65
2023-01-22T13:55:55.652Z,11.73
2023-01-22T13:59:37.204Z,9.50
2023-01-22T14:02:44.945Z,11.57
2023-01-22T14:05:50.437Z,11.10
2023-01-22T14:08:57.776Z,10.07
2023-01-22T14:12:16.926Z,10.45
2023-01-22T14:15:22.058Z,10.77
2023-01-22T14:18:30.662Z,11.82
2023-01-22T14:21:35.849Z,11.15
2023-01-22T14:24:40.749Z,13.90
2023-01-22T14:27:48.721Z,11.20
2023-01-22T14:30:53.520Z,10.98
2023-01-22T14:33:57.957Z,12.30
2023-01-22T14:37:02.709Z,12.05
2023-01-22T14:40:10.603Z,9.88
2023-01-22T14:43:16.002Z,10.48
2023-01-22T14:46:20.827Z,9.30
2023-01-22T14:49:25.862Z,10.00
2023-01-22T14:52:30.741Z,10.77
2023-01-22T14:55:35.657Z,10.60
2023-01-22T14:58:40.350Z,10.75
2023-01-22T15:01:44.941Z,11.40
2023-01-22T15:04:49.725Z,11.23
2023-01-22T15:07:54.787Z,11.48
2023-01-22T15:11:01.248Z,12.65
2023-01-22T15:14:07.077Z,10.70
2023-01-22T15:17:11.543Z,9.43
2023-01-22T15:20:16.998Z,12.90
2023-01-22T15:23:22.665Z,11.70
2023-01-22T15:26:35.596Z,11.18
2023-01-22T15:29:40.266Z,13.43
2023-01-22T15:32:45.051Z,12.32
2023-01-22T15:35:50.117Z,12.98
2023-01-22T15:38:55.123Z,12.30
2023-01-22T15:42:00.193Z,11.82
2023-01-22T15:45:06.844Z,10.75
2023-01-22T15:48:14.112Z,11.13
2023-01-22T15:51:19.344Z,11.75
2023-01-22T15:54:25.792Z,13.07
2023-01-22T15:57:30.396Z,12.27
2023-01-22T16:00:35.166Z,12.57
2023-01-22T16:03:39.896Z,12.88
2023-01-22T16:06:44.840Z,12.18
2023-01-22T16:09:49.827Z,11.88
2023-01-22T16:12:54.575Z,12.15
2023-01-22T16:16:05.115Z,12.55
2023-01-22T16:19:10.918Z,11.82
2023-01-22T16:22:15.589Z,11.48
2023-01-22T16:25:20.531Z,12.45
2023-01-22T16:28:25.269Z,11.48
2023-01-22T16:31:34.771Z,11.98
2023-01-22T16:34:39.300Z,11.13
2023-01-22T16:37:45.067Z,11.38
2023-01-22T16:40:50.538Z,10.93
2023-01-22T16:43:59.572Z,10.55
2023-01-22T16:47:04.534Z,11.57
2023-01-22T16:50:10.363Z,12.32
2023-01-22T16:53:14.955Z,14.02
2023-01-22T16:56:19.773Z,13.93
2023-01-22T16:59:26.086Z,13.05
2023-01-22T17:02:31.455Z,14.20
2023-01-22T17:05:36.344Z,12.82
2023-01-22T17:08:41.436Z,12.32
2023-01-22T17:11:52.852Z,13.85
2023-01-22T17:14:57.995Z,13.98
2023-01-22T17:18:02.685Z,12.73
2023-01-22T17:21:10.241Z,13.77
2023-01-22T17:24:15.191Z,13.32
2023-01-22T17:27:20.481Z,13.60
2023-01-22T17:30:25.324Z,13.45
2023-01-22T17:33:29.915Z,12.50
2023-01-22T17:36:34.869Z,13.88
2023-01-22T17:39:40.872Z,13.88
2023-01-22T17:42:45.878Z,13.98
2023-01-22T17:45:54.227Z,13.88
2023-01-22T17:49:06.060Z,12.93
2023-01-22T17:52:15.521Z,13.70
2023-01-22T17:55:28.149Z,13.32
2023-01-22T17:58:33.767Z,13.65
2023-01-22T18:01:48.498Z,13.82
2023-01-22T18:04:56.223Z,13.50
2023-01-22T18:08:03.979Z,15.77
2023-01-22T18:14:46.255Z,15.68
2023-01-22T18:18:02.188Z,14.60
2023-01-22T18:21:14.987Z,13.05
2023-01-22T18:24:23.127Z,14.15
2023-01-22T18:27:28.705Z,14.32
2023-01-22T18:30:35.399Z,14.50
2023-01-22T18:33:41.559Z,12.57
2023-01-22T18:36:46.289Z,14.20
2023-01-22T18:39:51.208Z,14.77
2023-01-22T18:42:56.089Z,13.98
2023-01-22T18:46:13.115Z,15.02
2023-01-22T18:49:19.162Z,16.58
2023-01-22T18:52:25.483Z,15.38
2023-01-22T18:55:31.412Z,16.52
2023-01-22T18:58:37.914Z,15.68
2023-01-22T19:01:50.047Z,16.20
2023-01-22T19:04:54.908Z,16.10
2023-01-22T19:08:00.142Z,15.85
2023-01-22T19:11:07.647Z,15.10
2023-01-22T19:14:16.851Z,14.45
2023-01-22T19:17:22.176Z,13.13
2023-01-22T19:20:27.313Z,14.02
2023-01-22T19:23:34.769Z,13.27
2023-01-22T19:26:39.514Z,12.88
2023-01-22T19:29:47.285Z,12.88
2023-01-22T19:32:56.025Z,13.57
2023-01-22T19:36:00.663Z,14.77
2023-01-22T19:39:11.490Z,14.20
2023-01-22T19:42:16.661Z,14.73
2023-01-22T19:45:21.214Z,13.77
2023-01-22T19:48:26.847Z,13.70
2023-01-22T19:51:31.782Z,13.55
2023-01-22T19:54:40.608Z,12.48
2023-01-22T19:57:45.468Z,12.90
2023-01-22T20:00:51.130Z,13.48
2023-01-22T20:03:56.472Z,13.98
2023-01-22T20:07:05.864Z,12.70
2023-01-22T20:10:14.094Z,13.88
2023-01-22T20:13:19.205Z,14.48
2023-01-22T20:16:27.870Z,12.60
2023-01-22T20:19:33.058Z,13.57
2023-01-22T20:22:37.600Z,12.85
2023-01-22T20:25:42.574Z,12.75
2023-01-22T20:28:48.131Z,13.95
2023-01-22T20:31:53.910Z,13.20
2023-01-22T20:34:58.986Z,13.65
2023-01-22T20:38:04.155Z,12.27
2023-01-22T20:41:09.396Z,14.07
2023-01-22T20:44:14.772Z,13.45
2023-01-22T20:47:19.143Z,13.43
2023-01-22T20:50:23.958Z,13.93
2023-01-22T20:53:29.492Z,13.98
2023-01-22T20:56:35.539Z,16.38
2023-01-22T20:59:40.283Z,14.88
2023-01-22T21:02:45.218Z,14.00
2023-01-22T21:05:50.164Z,13.50
2023-01-22T21:08:59.162Z,14.77
2023-01-22T21:12:04.224Z,14.68
2023-01-22T21:15:09.881Z,14.23
2023-01-22T21:18:14.592Z,14.95
2023-01-22T21:21:20.172Z,16.30
2023-01-22T21:24:25.049Z,14.68
2023-01-22T21:27:29.873Z,14.77
2023-01-22T21:30:35.473Z,12.50
2023-01-22T21:33:40.649Z,14.38
2023-01-22T21:36:50.756Z,13.88
2023-01-22T21:39:55.160Z,14.10
2023-01-22T21:43:18.301Z,13.02
2023-01-22T21:46:25.366Z,13.52
2023-01-22T21:49:32.919Z,14.10
2023-01-22T21:52:37.569Z,14.23
2023-01-22T21:55:51.388Z,14.40
2023-01-22T21:58:56.504Z,13.75
2023-01-22T22:02:01.014Z,14.68
2023-01-22T22:05:07.341Z,14.48
2023-01-22T22:08:12.031Z,14.07
2023-01-22T22:11:18.171Z,14.93
2023-01-22T22:14:24.698Z,16.45
2023-01-22T22:17:29.297Z,16.13
2023-01-22T22:20:34.142Z,13.70
2023-01-22T22:23:39.477Z,14.93
2023-01-22T22:26:44.226Z,13.82
2023-01-22T22:29:51.570Z,14.00
2023-01-22T22:32:58.901Z,13.27
2023-01-22T22:36:03.662Z,13.85
2023-01-22T22:39:08.440Z,14.02
2023-01-22T22:42:13.164Z,14.07
2023-01-22T22:45:17.910Z,13.82
2023-01-22T22:48:22.952Z,13.13
2023-01-22T22:51:37.755Z,12.77
2023-01-22T22:54:43.811Z,13.38
2023-01-22T22:57:49.220Z,13.45
2023-01-22T23:00:53.654Z,14.25
2023-01-22T23:03:59.109Z,13.18
2023-01-22T23:07:03.945Z,14.80
2023-01-22T23:10:28.617Z,12.50
2023-01-22T23:13:34.559Z,13.35
2023-01-22T23:16:42.372Z,14.80
2023-01-22T23:19:47.424Z,13.55
2023-01-22T23:22:58.668Z,12.63
2023-01-22T23:26:09.707Z,13.18
2023-01-22T23:29:19.118Z,14.70
2023-01-22T23:32:26.439Z,15.40
2023-01-22T23:35:31.580Z,14.07
2023-01-22T23:38:36.280Z,13.02
2023-01-22T23:41:42.067Z,13.48
2023-01-22T23:44:46.965Z,13.98
2023-01-22T23:47:52.271Z,14.18
2023-01-22T23:50:57.064Z,16.00
2023-01-22T23:54:02.035Z,15.27
2023-01-22T23:57:06.890Z,16.60
